sensor_id;sensor_type;location;lat;lon;timestamp;pressure;altitude;pressure_sealevel;temperature;humidity
61123;BME280;47008;47.542;19.090;2023-09-18T03:22:35;100662.19;;;17.56;100.00
61123;BME280;47008;47.542;19.090;2023-09-18T03:25:38;100662.19;;;17.56;100.00
61123;BME280;47008;47.542;19.090;2023-09-18T03:28:53;100659.03;;;17.05;100.00
61123;BME280;47008;47.542;19.090;2023-09-18T03:31:57;100658.88;;;16.99;100.00
61123;BME280;47008;47.542;19.090;2023-09-18T03:35:01;100660.53;;;17.00;100.00
61123;BME280;47008;47.542;19.090;2023-09-18T03:38:06;100652.94;;;16.97;100.00
61123;BME280;47008;47.542;19.090;2023-09-18T03:41:09;100657.25;;;16.98;100.00
61123;BME280;47008;47.542;19.090;2023-09-18T03:44:12;100648.41;;;16.98;100.00
61123;BME280;47008;47.542;19.090;2023-09-18T03:47:15;100649.22;;;16.98;100.00
61123;BME280;47008;47.542;19.090;2023-09-18T03:50:18;100653.09;;;17.03;100.00
61123;BME280;47008;47.542;19.090;2023-09-18T03:53:22;100653.31;;;17.01;100.00
61123;BME280;47008;47.542;19.090;2023-09-18T03:56:25;100657.84;;;17.00;100.00
61123;BME280;47008;47.542;19.090;2023-09-18T03:59:28;100654.72;;;17.04;100.00
61123;BME280;47008;47.542;19.090;2023-09-18T04:02:31;100653.91;;;17.03;100.00
61123;BME280;47008;47.542;19.090;2023-09-18T04:05:34;100656.81;;;17.02;100.00
61123;BME280;47008;47.542;19.090;2023-09-18T04:08:37;100651.22;;;17.03;100.00
61123;BME280;47008;47.542;19.090;2023-09-18T04:11:41;100640.97;;;17.00;100.00
61123;BME280;47008;47.542;19.090;2023-09-18T04:14:45;100650.25;;;16.97;100.00
61123;BME280;47008;47.542;19.090;2023-09-18T04:17:48;100641.84;;;16.94;100.00
61123;BME280;47008;47.542;19.090;2023-09-18T06:02:46;100632.91;;;18.15;100.00
61123;BME280;47008;47.542;19.090;2023-09-18T06:09:54;100628.38;;;18.15;100.00
61123;BME280;47008;47.542;19.090;2023-09-18T06:12:57;100620.37;;;18.27;100.00
61123;BME280;47008;47.542;19.090;2023-09-18T06:16:01;100625.88;;;18.44;100.00
61123;BME280;47008;47.542;19.090;2023-09-18T06:19:12;100627.63;;;18.50;100.00
61123;BME280;47008;47.542;19.090;2023-09-18T06:22:15;100621.34;;;18.67;100.00
61123;BME280;47008;47.542;19.090;2023-09-18T06:25:19;100628.00;;;18.65;100.00
61123;BME280;47008;47.542;19.090;2023-09-18T06:28:23;100625.44;;;18.70;100.00
61123;BME280;47008;47.542;19.090;2023-09-18T06:31:26;100620.31;;;18.80;100.00
61123;BME280;47008;47.542;19.090;2023-09-18T06:34:29;100619.00;;;18.83;100.00
61123;BME280;47008;47.542;19.090;2023-09-18T06:37:33;100616.56;;;18.81;100.00
61123;BME280;47008;47.542;19.090;2023-09-18T06:40:36;100619.72;;;18.90;100.00
61123;BME280;47008;47.542;19.090;2023-09-18T06:43:39;100622.06;;;18.98;100.00
61123;BME280;47008;47.542;19.090;2023-09-18T06:46:42;100618.03;;;19.12;100.00
61123;BME280;47008;47.542;19.090;2023-09-18T06:49:46;100625.62;;;19.15;100.00
61123;BME280;47008;47.542;19.090;2023-09-18T06:52:49;100623.06;;;19.20;100.00
61123;BME280;47008;47.542;19.090;2023-09-18T06:55:53;100610.28;;;19.39;100.00
61123;BME280;47008;47.542;19.090;2023-09-18T06:58:56;100610.34;;;19.56;100.00
61123;BME280;47008;47.542;19.090;2023-09-18T07:02:01;100609.50;;;19.67;100.00
61123;BME280;47008;47.542;19.090;2023-09-18T07:05:04;100609.59;;;19.72;100.00
61123;BME280;47008;47.542;19.090;2023-09-18T07:08:08;100602.28;;;19.84;100.00
61123;BME280;47008;47.542;19.090;2023-09-18T07:11:15;100605.97;;;19.95;100.00
61123;BME280;47008;47.542;19.090;2023-09-18T07:14:19;100604.13;;;20.12;100.00
61123;BME280;47008;47.542;19.090;2023-09-18T07:17:22;100608.88;;;20.38;100.00
61123;BME280;47008;47.542;19.090;2023-09-18T07:20:25;100603.41;;;20.67;97.46
61123;BME280;47008;47.542;19.090;2023-09-18T07:23:28;100603.72;;;20.70;94.42
61123;BME280;47008;47.542;19.090;2023-09-18T07:26:31;100605.69;;;20.75;94.81
61123;BME280;47008;47.542;19.090;2023-09-18T07:29:34;100603.72;;;20.70;94.24
61123;BME280;47008;47.542;19.090;2023-09-18T07:32:41;100604.00;;;20.91;93.53
61123;BME280;47008;47.542;19.090;2023-09-18T07:35:46;100608.50;;;21.02;92.78
61123;BME280;47008;47.542;19.090;2023-09-18T07:38:51;100605.69;;;21.35;92.58
61123;BME280;47008;47.542;19.090;2023-09-18T07:41:54;100602.94;;;21.52;90.51
61123;BME280;47008;47.542;19.090;2023-09-18T07:44:59;100613.25;;;21.87;89.50
61123;BME280;47008;47.542;19.090;2023-09-18T07:48:03;100604.72;;;22.27;86.90
61123;BME280;47008;47.542;19.090;2023-09-18T07:55:23;100601.97;;;22.49;83.90
61123;BME280;47008;47.542;19.090;2023-09-18T07:58:26;100593.91;;;23.01;81.28
61123;BME280;47008;47.542;19.090;2023-09-18T08:01:31;100603.37;;;23.04;80.03
61123;BME280;47008;47.542;19.090;2023-09-18T08:04:35;100594.28;;;23.20;77.95
61123;BME280;47008;47.542;19.090;2023-09-18T08:07:38;100596.44;;;23.28;78.33
61123;BME280;47008;47.542;19.090;2023-09-18T08:10:41;100596.53;;;23.49;76.93
61123;BME280;47008;47.542;19.090;2023-09-18T08:13:44;100584.41;;;23.61;76.70
61123;BME280;47008;47.542;19.090;2023-09-18T08:16:48;100577.94;;;23.72;76.47
61123;BME280;47008;47.542;19.090;2023-09-18T08:19:59;100572.28;;;23.84;75.07
61123;BME280;47008;47.542;19.090;2023-09-18T08:23:03;100573.09;;;23.90;76.13
61123;BME280;47008;47.542;19.090;2023-09-18T08:26:08;100566.31;;;24.02;74.37
61123;BME280;47008;47.542;19.090;2023-09-18T08:29:11;100557.41;;;24.37;72.95
61123;BME280;47008;47.542;19.090;2023-09-18T08:32:14;100561.47;;;24.40;73.06
61123;BME280;47008;47.542;19.090;2023-09-18T08:35:18;100548.16;;;24.54;72.45
61123;BME280;47008;47.542;19.090;2023-09-18T08:38:21;100556.72;;;24.91;71.46
61123;BME280;47008;47.542;19.090;2023-09-18T08:41:28;100548.16;;;25.28;69.51
61123;BME280;47008;47.542;19.090;2023-09-18T08:44:31;100552.75;;;25.38;68.95
61123;BME280;47008;47.542;19.090;2023-09-18T08:47:35;100552.88;;;25.62;68.41
61123;BME280;47008;47.542;19.090;2023-09-18T08:59:01;100542.37;;;25.89;66.61
61123;BME280;47008;47.542;19.090;2023-09-18T09:02:04;100544.53;;;26.50;64.99
61123;BME280;47008;47.542;19.090;2023-09-18T09:05:07;100541.34;;;26.72;64.58
61123;BME280;47008;47.542;19.090;2023-09-18T09:08:11;100543.06;;;26.87;61.63
61123;BME280;47008;47.542;19.090;2023-09-18T09:11:14;100552.28;;;26.67;63.21
61123;BME280;47008;47.542;19.090;2023-09-18T09:14:18;100538.97;;;26.89;62.06
61123;BME280;47008;47.542;19.090;2023-09-18T09:17:25;100545.37;;;26.98;61.23
61123;BME280;47008;47.542;19.090;2023-09-18T09:20:29;100552.88;;;27.30;59.96
61123;BME280;47008;47.542;19.090;2023-09-18T09:23:58;100548.16;;;27.73;59.36
61123;BME280;47008;47.542;19.090;2023-09-18T09:27:02;100539.41;;;27.95;57.49
61123;BME280;47008;47.542;19.090;2023-09-18T09:30:06;100533.53;;;28.02;57.61
61123;BME280;47008;47.542;19.090;2023-09-18T09:33:11;100533.53;;;28.02;57.13
61123;BME280;47008;47.542;19.090;2023-09-18T09:36:15;100538.06;;;27.93;57.27
61123;BME280;47008;47.542;19.090;2023-09-18T09:39:19;100531.34;;;28.04;56.69
61123;BME280;47008;47.542;19.090;2023-09-18T09:42:24;100531.72;;;28.30;56.90
61123;BME280;47008;47.542;19.090;2023-09-18T09:45:31;100532.53;;;28.30;55.54
61123;BME280;47008;47.542;19.090;2023-09-18T09:48:39;100529.81;;;28.30;55.37
61123;BME280;47008;47.542;19.090;2023-09-18T09:51:43;100536.28;;;28.34;56.26
61123;BME280;47008;47.542;19.090;2023-09-18T09:54:46;100524.87;;;28.46;55.21
61123;BME280;47008;47.542;19.090;2023-09-18T09:57:55;100520.56;;;28.45;54.70
61123;BME280;47008;47.542;19.090;2023-09-18T10:01:03;100505.09;;;28.54;54.86
61123;BME280;47008;47.542;19.090;2023-09-18T10:04:14;100504.31;;;28.81;53.76
61123;BME280;47008;47.542;19.090;2023-09-18T10:07:20;100492.97;;;28.60;55.45
61123;BME280;47008;47.542;19.090;2023-09-18T10:10:31;100484.81;;;28.88;53.54
61123;BME280;47008;47.542;19.090;2023-09-18T10:13:42;100477.84;;;28.82;54.02
61123;BME280;47008;47.542;19.090;2023-09-18T10:16:53;100475.06;;;29.09;53.35
61123;BME280;47008;47.542;19.090;2023-09-18T10:20:12;100470.97;;;28.84;53.80
61123;BME280;47008;47.542;19.090;2023-09-18T10:23:38;100480.66;;;28.90;52.75
61123;BME280;47008;47.542;19.090;2023-09-18T10:26:57;100476.00;;;28.50;53.55
61123;BME280;47008;47.542;19.090;2023-09-18T10:30:05;100474.31;;;28.67;54.79
61123;BME280;47008;47.542;19.090;2023-09-18T10:33:12;100464.69;;;28.84;53.35
61123;BME280;47008;47.542;19.090;2023-09-18T10:36:19;100450.44;;;28.73;53.80
61123;BME280;47008;47.542;19.090;2023-09-18T10:39:26;100447.41;;;28.74;54.47
61123;BME280;47008;47.542;19.090;2023-09-18T10:42:38;100448.13;;;28.66;54.99
61123;BME280;47008;47.542;19.090;2023-09-18T10:45:42;100435.44;;;28.34;54.25
61123;BME280;47008;47.542;19.090;2023-09-18T10:48:48;100430.78;;;28.35;54.43
61123;BME280;47008;47.542;19.090;2023-09-18T10:51:55;100417.53;;;28.15;55.24
61123;BME280;47008;47.542;19.090;2023-09-18T10:55:00;100416.75;;;28.41;55.49
61123;BME280;47008;47.542;19.090;2023-09-18T10:58:04;100420.25;;;28.69;55.01
61123;BME280;47008;47.542;19.090;2023-09-18T11:01:12;100412.19;;;28.64;53.94
61123;BME280;47008;47.542;19.090;2023-09-18T11:04:20;100415.81;;;28.60;55.09
61123;BME280;47008;47.542;19.090;2023-09-18T11:07:24;100417.56;;;28.42;54.66
61123;BME280;47008;47.542;19.090;2023-09-18T11:10:28;100416.22;;;28.26;55.65
61123;BME280;47008;47.542;19.090;2023-09-18T11:13:35;100417.44;;;28.20;55.18
61123;BME280;47008;47.542;19.090;2023-09-18T11:16:38;100415.22;;;28.22;55.49
61123;BME280;47008;47.542;19.090;2023-09-18T11:19:45;100401.94;;;28.20;55.51
61123;BME280;47008;47.542;19.090;2023-09-18T11:22:55;100409.25;;;28.47;54.95
61123;BME280;47008;47.542;19.090;2023-09-18T11:30:10;100388.38;;;28.29;54.78
61123;BME280;47008;47.542;19.090;2023-09-18T11:33:14;100372.72;;;28.07;55.92
61123;BME280;47008;47.542;19.090;2023-09-18T11:39:39;100373.41;;;28.12;56.33
61123;BME280;47008;47.542;19.090;2023-09-18T11:46:29;100378.25;;;28.02;56.08
61123;BME280;47008;47.542;19.090;2023-09-18T11:49:33;100367.97;;;27.85;56.51
61123;BME280;47008;47.542;19.090;2023-09-18T11:52:36;100371.09;;;28.06;56.30
61123;BME280;47008;47.542;19.090;2023-09-18T12:04:03;100344.47;;;28.17;56.00
61123;BME280;47008;47.542;19.090;2023-09-18T12:07:11;100341.13;;;28.06;55.28
61123;BME280;47008;47.542;19.090;2023-09-18T12:10:16;100338.09;;;27.80;55.28
61123;BME280;47008;47.542;19.090;2023-09-18T12:13:27;100324.87;;;28.15;54.89
61123;BME280;47008;47.542;19.090;2023-09-18T12:16:30;100324.78;;;28.20;54.35
61123;BME280;47008;47.542;19.090;2023-09-18T12:19:36;100316.00;;;28.36;53.94
61123;BME280;47008;47.542;19.090;2023-09-18T12:22:39;100320.91;;;28.48;53.28
61123;BME280;47008;47.542;19.090;2023-09-18T12:25:48;100327.56;;;28.56;52.61
61123;BME280;47008;47.542;19.090;2023-09-18T12:28:52;100321.94;;;28.74;51.69
61123;BME280;47008;47.542;19.090;2023-09-18T12:31:55;100322.50;;;28.63;51.94
61123;BME280;47008;47.542;19.090;2023-09-18T12:34:58;100326.13;;;28.58;51.98
61123;BME280;47008;47.542;19.090;2023-09-18T12:38:02;100314.97;;;28.82;51.53
61123;BME280;47008;47.542;19.090;2023-09-18T12:41:16;100307.38;;;28.93;51.28
61123;BME280;47008;47.542;19.090;2023-09-18T12:44:19;100304.31;;;28.94;51.06
61123;BME280;47008;47.542;19.090;2023-09-18T12:47:22;100307.94;;;29.34;49.77
61123;BME280;47008;47.542;19.090;2023-09-18T12:50:27;100296.94;;;29.48;49.84
61123;BME280;47008;47.542;19.090;2023-09-18T12:53:30;100294.22;;;29.26;49.91
61123;BME280;47008;47.542;19.090;2023-09-18T12:56:40;100290.66;;;29.17;49.79
61123;BME280;47008;47.542;19.090;2023-09-18T12:59:43;100288.28;;;29.24;48.61
61123;BME280;47008;47.542;19.090;2023-09-18T13:02:47;100293.72;;;29.15;49.71
61123;BME280;47008;47.542;19.090;2023-09-18T13:05:51;100289.69;;;29.12;50.39
61123;BME280;47008;47.542;19.090;2023-09-18T13:09:17;100283.94;;;28.78;50.45
61123;BME280;47008;47.542;19.090;2023-09-18T13:12:20;100277.87;;;29.03;50.95
61123;BME280;47008;47.542;19.090;2023-09-18T13:15:26;100277.75;;;29.08;50.14
61123;BME280;47008;47.542;19.090;2023-09-18T13:18:32;100265.94;;;29.22;50.29
61123;BME280;47008;47.542;19.090;2023-09-18T13:21:36;100263.56;;;28.98;49.71
61123;BME280;47008;47.542;19.090;2023-09-18T13:24:40;100259.41;;;29.00;49.75
61123;BME280;47008;47.542;19.090;2023-09-18T13:27:44;100249.53;;;29.13;50.04
61123;BME280;47008;47.542;19.090;2023-09-18T13:30:47;100265.81;;;29.27;49.33
61123;BME280;47008;47.542;19.090;2023-09-18T13:33:51;100252.50;;;29.56;48.34
61123;BME280;47008;47.542;19.090;2023-09-18T13:36:55;100254.16;;;29.74;48.31
61123;BME280;47008;47.542;19.090;2023-09-18T13:39:58;100244.34;;;29.34;48.56
61123;BME280;47008;47.542;19.090;2023-09-18T13:43:04;100235.72;;;29.09;50.31
61123;BME280;47008;47.542;19.090;2023-09-18T13:46:07;100226.81;;;28.95;49.33
61123;BME280;47008;47.542;19.090;2023-09-18T13:49:10;100223.03;;;28.83;49.85
61123;BME280;47008;47.542;19.090;2023-09-18T13:52:13;100214.91;;;28.91;49.19
61123;BME280;47008;47.542;19.090;2023-09-18T13:55:17;100214.75;;;28.96;49.05
61123;BME280;47008;47.542;19.090;2023-09-18T13:58:20;100206.84;;;28.86;49.07
61123;BME280;47008;47.542;19.090;2023-09-18T14:01:24;100203.31;;;28.63;49.59
61123;BME280;47008;47.542;19.090;2023-09-18T14:04:31;100200.28;;;28.42;50.99
61123;BME280;47008;47.542;19.090;2023-09-18T14:07:36;100205.16;;;28.32;51.35
61123;BME280;47008;47.542;19.090;2023-09-18T14:10:41;100196.97;;;28.32;51.50
61123;BME280;47008;47.542;19.090;2023-09-18T14:13:45;100189.41;;;28.29;51.01
61123;BME280;47008;47.542;19.090;2023-09-18T14:16:51;100188.12;;;28.12;51.20
61123;BME280;47008;47.542;19.090;2023-09-18T14:19:54;100180.19;;;28.02;51.72
61123;BME280;47008;47.542;19.090;2023-09-18T14:22:57;100177.44;;;28.16;51.61
61123;BME280;47008;47.542;19.090;2023-09-18T14:26:00;100169.22;;;28.52;51.18
61123;BME280;47008;47.542;19.090;2023-09-18T14:29:04;100167.72;;;29.30;50.22
61123;BME280;47008;47.542;19.090;2023-09-18T14:32:06;100164.75;;;29.49;49.61
61123;BME280;47008;47.542;19.090;2023-09-18T14:35:11;100164.81;;;29.27;48.80
61123;BME280;47008;47.542;19.090;2023-09-18T14:38:16;100162.69;;;29.55;47.52
61123;BME280;47008;47.542;19.090;2023-09-18T14:41:19;100156.09;;;29.56;46.59
61123;BME280;47008;47.542;19.090;2023-09-18T14:44:23;100153.09;;;29.18;47.47
61123;BME280;47008;47.542;19.090;2023-09-18T14:47:28;100153.63;;;28.97;47.88
61123;BME280;47008;47.542;19.090;2023-09-18T14:50:31;100156.22;;;29.02;48.00
61123;BME280;47008;47.542;19.090;2023-09-18T14:53:34;100141.59;;;28.67;48.71
61123;BME280;47008;47.542;19.090;2023-09-18T14:56:38;100142.44;;;28.54;48.67
61123;BME280;47008;47.542;19.090;2023-09-18T14:59:42;100143.75;;;28.57;48.84
61123;BME280;47008;47.542;19.090;2023-09-18T15:02:50;100143.66;;;28.93;47.88
61123;BME280;47008;47.542;19.090;2023-09-18T15:05:54;100135.41;;;29.24;47.05
61123;BME280;47008;47.542;19.090;2023-09-18T15:08:58;100138.44;;;29.53;46.37
61123;BME280;47008;47.542;19.090;2023-09-18T15:12:01;100135.56;;;29.10;47.29
61123;BME280;47008;47.542;19.090;2023-09-18T15:15:06;100135.63;;;28.88;47.48
61123;BME280;47008;47.542;19.090;2023-09-18T15:18:10;100139.81;;;28.94;48.36
61123;BME280;47008;47.542;19.090;2023-09-18T15:21:13;100132.13;;;28.73;47.93
61123;BME280;47008;47.542;19.090;2023-09-18T15:24:16;100125.09;;;28.50;48.85
61123;BME280;47008;47.542;19.090;2023-09-18T15:27:20;100124.25;;;28.41;48.62
